Time;durP1;ratioP1;P1;durP2;ratioP2;P2;SDS_P1;SDS_P2;PMS_P1;PMS_P2;Temp;Humidity;BMP_temperature;BMP_pressure;BME280_temperature;BME280_humidity;BME280_pressure;Samples;Min_cycle;Max_cycle;Signal;HPM_P1;HPM_P2
2024/01/05 00:02:04;;;;;;;1.23;0.50;;;;;;;-142.06;100.00;64312.41;5033582;28;20193;-80
2024/01/05 00:04:30;;;;;;;2.27;0.70;;;;;;;-142.06;100.00;64312.41;5048709;28;20197;-78
2024/01/05 00:06:57;;;;;;;1.07;0.50;;;;;;;-142.06;100.00;64312.41;5047863;28;20208;-78
2024/01/05 00:09:24;;;;;;;1.47;0.50;;;;;;;-142.06;100.00;64312.41;5047459;28;20193;-81
2024/01/05 00:11:51;;;;;;;1.00;0.50;;;;;;;-142.06;100.00;64312.41;5049142;28;20252;-80
2024/01/05 00:14:18;;;;;;;1.90;0.50;;;;;;;-142.06;100.00;64312.41;5050449;28;20293;-80
2024/01/05 00:16:46;;;;;;;0.63;0.30;;;;;;;-142.06;100.00;64312.41;5050921;28;20205;-79
2024/01/05 00:19:13;;;;;;;1.97;0.50;;;;;;;-142.06;100.00;64312.41;5051645;28;20302;-78
2024/01/05 00:21:40;;;;;;;1.10;0.43;;;;;;;-142.06;100.00;64312.41;5055656;28;20276;-80
2024/01/05 00:24:07;;;;;;;0.53;0.37;;;;;;;-142.06;100.00;64312.41;5050197;28;20212;-80
2024/01/05 00:26:33;;;;;;;1.10;0.40;;;;;;;-142.06;100.00;64312.41;5055793;28;20731;-80
2024/01/05 00:29:02;;;;;;;2.00;0.60;;;;;;;-142.06;100.00;64312.41;5047930;28;20190;-78
2024/01/05 00:31:29;;;;;;;1.57;0.40;;;;;;;-142.06;100.00;64312.41;5033445;28;20190;-79
2024/01/05 00:33:56;;;;;;;1.10;0.40;;;;;;;-142.06;100.00;64312.41;5051302;28;20185;-80
2024/01/05 00:36:23;;;;;;;0.97;0.40;;;;;;;-142.06;100.00;64312.41;5050317;28;20670;-79
2024/01/05 00:38:49;;;;;;;2.67;0.60;;;;;;;-142.06;100.00;64312.41;5052537;28;20194;-79
2024/01/05 00:41:16;;;;;;;1.40;0.30;;;;;;;-142.06;100.00;64312.41;5053651;28;20198;-81
2024/01/05 00:43:43;;;;;;;1.03;0.50;;;;;;;-142.06;100.00;64312.41;5056759;28;20196;-79
2024/01/05 00:46:10;;;;;;;1.17;0.60;;;;;;;-142.06;100.00;64312.41;5053896;28;20241;-80
2024/01/05 00:48:37;;;;;;;0.63;0.37;;;;;;;-142.06;100.00;64312.41;5054421;28;20198;-79
2024/01/05 00:51:04;;;;;;;0.73;0.40;;;;;;;-142.06;100.00;64312.41;5054012;28;20193;-79
2024/01/05 00:53:31;;;;;;;1.23;0.47;;;;;;;-142.06;100.00;64312.41;5052482;28;20198;-80
2024/01/05 00:55:58;;;;;;;1.13;0.40;;;;;;;-142.06;100.00;64312.41;5054103;28;20223;-78
2024/01/05 00:58:24;;;;;;;1.00;0.43;;;;;;;-142.06;100.00;64312.41;5035316;28;20232;-78
2024/01/05 01:00:51;;;;;;;1.30;0.50;;;;;;;-142.06;100.00;64312.41;5054372;28;20677;-79
2024/01/05 01:03:18;;;;;;;1.00;0.50;;;;;;;-142.06;100.00;64312.41;5054862;28;20196;-81
2024/01/05 01:05:45;;;;;;;0.97;0.40;;;;;;;-142.06;100.00;64312.41;5056399;28;20312;-80
2024/01/05 01:08:12;;;;;;;1.70;0.53;;;;;;;-142.06;100.00;64312.41;5053357;28;20198;-80
2024/01/05 01:10:39;;;;;;;1.67;0.70;;;;;;;-142.06;100.00;64312.41;5054666;28;20273;-80
2024/01/05 01:13:06;;;;;;;0.57;0.40;;;;;;;-142.06;100.00;64312.41;5055088;28;20198;-79
2024/01/05 01:15:33;;;;;;;1.00;0.40;;;;;;;-142.06;100.00;64312.41;5054078;28;20197;-79
2024/01/05 01:18:00;;;;;;;0.50;0.30;;;;;;;-142.06;100.00;64312.41;5055102;28;20190;-82
2024/01/05 01:20:27;;;;;;;1.50;0.40;;;;;;;-142.06;100.00;64312.41;5056173;28;20205;-81
2024/01/05 01:22:54;;;;;;;1.47;0.70;;;;;;;-142.06;100.00;64312.41;5056238;28;20190;-78
2024/01/05 01:25:21;;;;;;;2.30;0.40;;;;;;;-142.06;100.00;64312.41;5039272;28;20210;-79
2024/01/05 01:27:47;;;;;;;1.20;0.50;;;;;;;-142.06;100.00;64312.41;5056479;28;20221;-78
2024/01/05 01:30:14;;;;;;;1.17;0.43;;;;;;;-142.06;100.00;64312.41;5036967;28;20205;-79
2024/01/05 01:32:42;;;;;;;1.20;0.60;;;;;;;-142.06;100.00;64312.41;5055457;28;20193;-79
2024/01/05 01:35:09;;;;;;;1.10;0.50;;;;;;;-142.06;100.00;64312.41;5057073;28;20208;-79
2024/01/05 01:37:35;;;;;;;1.57;0.40;;;;;;;-142.06;100.00;64312.41;5049921;28;20254;-78
2024/01/05 01:40:04;;;;;;;1.57;0.40;;;;;;;-142.06;100.00;64312.41;5051670;28;20202;-79
2024/01/05 01:42:32;;;;;;;0.80;0.47;;;;;;;-142.06;100.00;64312.41;5053227;28;20202;-79
2024/01/05 01:45:00;;;;;;;0.40;0.30;;;;;;;-142.06;100.00;64312.41;5054636;28;20276;-79
2024/01/05 01:47:28;;;;;;;2.00;0.40;;;;;;;-142.06;100.00;64312.41;5053806;28;20233;-80
2024/01/05 01:49:55;;;;;;;1.03;0.50;;;;;;;-142.06;100.00;64312.41;5052677;28;20193;-79
2024/01/05 01:52:22;;;;;;;1.23;0.50;;;;;;;-142.06;100.00;64312.41;5052961;28;20216;-80
2024/01/05 01:54:49;;;;;;;1.00;0.50;;;;;;;-142.06;100.00;64312.41;5057109;28;20220;-81
2024/01/05 01:57:17;;;;;;;1.83;0.50;;;;;;;-142.06;100.00;64312.41;5035057;28;20196;-80
2024/01/05 01:59:45;;;;;;;1.33;0.43;;;;;;;-142.06;100.00;64312.41;5036383;28;20190;-79
2024/01/05 02:02:12;;;;;;;2.03;0.60;;;;;;;-142.06;100.00;64312.41;5047211;28;20232;-78
2024/01/05 02:04:40;;;;;;;0.90;0.50;;;;;;;-142.06;100.00;64312.41;5050162;28;20178;-77
2024/01/05 02:07:07;;;;;;;1.00;0.40;;;;;;;-142.06;100.00;64312.41;5045091;28;20222;-79
2024/01/05 02:09:34;;;;;;;1.60;0.50;;;;;;;-142.06;100.00;64312.41;5054933;28;20224;-78
2024/01/05 02:12:01;;;;;;;1.67;0.60;;;;;;;-142.06;100.00;64312.41;5062063;28;20216;-78
2024/01/05 02:14:28;;;;;;;1.10;0.50;;;;;;;-142.06;100.00;64312.41;5054026;28;20197;-78
2024/01/05 02:16:55;;;;;;;2.03;0.50;;;;;;;-142.06;100.00;64312.41;5054246;28;20197;-80
2024/01/05 02:19:22;;;;;;;1.83;0.60;;;;;;;-142.06;100.00;64312.41;5052374;28;20198;-79
2024/01/05 02:21:50;;;;;;;0.70;0.40;;;;;;;-142.06;100.00;64312.41;5053691;28;20189;-80
2024/01/05 02:24:17;;;;;;;0.70;0.50;;;;;;;-142.06;100.00;64312.41;5048488;28;20198;-80
2024/01/05 02:26:44;;;;;;;1.70;0.80;;;;;;;-142.06;100.00;64312.41;5054347;28;20209;-81
2024/01/05 02:29:13;;;;;;;3.33;2.10;;;;;;;-142.06;100.00;64312.41;5051806;28;20686;-80
2024/01/05 02:31:40;;;;;;;5.13;2.67;;;;;;;-142.06;100.00;64312.41;5055150;28;20197;-80
2024/01/05 02:34:07;;;;;;;3.57;1.93;;;;;;;-142.06;100.00;64312.41;5051296;28;20271;-80
2024/01/05 02:36:34;;;;;;;2.43;1.70;;;;;;;-142.06;100.00;64312.41;5052066;28;20208;-77
2024/01/05 02:39:01;;;;;;;2.90;1.30;;;;;;;-142.06;100.00;64312.41;5053443;28;20194;-80
2024/01/05 02:41:28;;;;;;;3.33;1.27;;;;;;;-142.06;100.00;64312.41;5030373;28;20197;-80
2024/01/05 02:43:54;;;;;;;3.77;1.50;;;;;;;-142.06;100.00;64312.41;5040386;28;20207;-79
2024/01/05 02:46:21;;;;;;;1.40;0.97;;;;;;;-142.06;100.00;64312.41;5052878;28;20298;-79
2024/01/05 02:48:48;;;;;;;1.50;0.87;;;;;;;-142.06;100.00;64312.41;5055160;28;20232;-81
2024/01/05 02:51:15;;;;;;;1.30;0.97;;;;;;;-142.06;100.00;64312.41;5053827;28;20221;-77
2024/01/05 02:53:42;;;;;;;3.93;0.80;;;;;;;-142.06;100.00;64312.41;5049518;28;20220;-79
2024/01/05 02:56:18;;;;;;;1.30;0.70;;;;;;;-142.06;100.00;64312.41;5053526;28;20198;-81
2024/01/05 02:58:45;;;;;;;2.50;0.70;;;;;;;-142.06;100.00;64312.41;5044029;28;20243;-81
2024/01/05 03:01:16;;;;;;;1.77;0.80;;;;;;;-142.06;100.00;64312.41;5035659;28;20198;-78
2024/01/05 03:03:47;;;;;;;2.60;0.70;;;;;;;-142.06;100.00;64312.41;5053267;28;20198;-82
2024/01/05 03:06:18;;;;;;;1.17;0.70;;;;;;;-142.06;100.00;64312.41;5046138;28;20208;-80
2024/01/05 03:08:46;;;;;;;3.60;0.97;;;;;;;-142.06;100.00;64312.41;5043922;28;20205;-80
2024/01/05 03:11:13;;;;;;;1.83;1.23;;;;;;;-142.06;100.00;64312.41;5043709;28;20197;-79
2024/01/05 03:13:40;;;;;;;2.13;0.90;;;;;;;-142.06;100.00;64312.41;5053047;28;20185;-78
2024/01/05 03:16:07;;;;;;;1.83;1.23;;;;;;;-142.06;100.00;64312.41;5043566;28;20190;-79
2024/01/05 03:18:34;;;;;;;1.77;1.10;;;;;;;-142.06;100.00;64312.41;5051947;28;20201;-80
2024/01/05 03:21:01;;;;;;;3.77;1.27;;;;;;;-142.06;100.00;64312.41;5053924;28;20277;-80
2024/01/05 03:23:28;;;;;;;1.37;0.90;;;;;;;-142.06;100.00;64312.41;5065085;28;20276;-80
2024/01/05 03:25:56;;;;;;;1.87;0.80;;;;;;;-142.06;100.00;64312.41;5060538;28;20195;-80
2024/01/05 03:28:24;;;;;;;1.73;0.80;;;;;;;-142.06;100.00;64312.41;5052192;28;20213;-79
2024/01/05 03:30:51;;;;;;;1.43;0.70;;;;;;;-142.06;100.00;64312.41;5046061;28;20281;-80
2024/01/05 03:33:21;;;;;;;2.30;0.70;;;;;;;-142.06;100.00;64312.41;5052535;28;20189;-82
2024/01/05 03:35:48;;;;;;;2.67;1.00;;;;;;;-142.06;100.00;64312.41;5052741;28;20228;-80
2024/01/05 03:38:15;;;;;;;2.67;0.80;;;;;;;-142.06;100.00;64312.41;5052422;28;20252;-81
2024/01/05 03:40:42;;;;;;;1.37;0.80;;;;;;;-142.06;100.00;64312.41;5053315;28;20190;-79
2024/01/05 03:43:09;;;;;;;1.13;0.73;;;;;;;-142.06;100.00;64312.41;5052808;28;20239;-79
2024/01/05 03:45:36;;;;;;;3.43;1.03;;;;;;;-142.06;100.00;64312.41;5041064;28;20205;-80
2024/01/05 03:48:04;;;;;;;1.73;0.80;;;;;;;-142.06;100.00;64312.41;5045829;28;20283;-79
2024/01/05 03:50:31;;;;;;;1.97;0.93;;;;;;;-142.06;100.00;64312.41;5049548;28;20272;-81
2024/01/05 03:52:59;;;;;;;2.30;1.10;;;;;;;-142.06;100.00;64312.41;5053315;28;20294;-79
2024/01/05 03:55:26;;;;;;;2.20;1.03;;;;;;;-142.06;100.00;64312.41;5053471;28;20200;-80
2024/01/05 03:57:53;;;;;;;4.43;1.20;;;;;;;-142.06;100.00;64312.41;5048275;28;20189;-82
2024/01/05 04:00:20;;;;;;;2.03;1.27;;;;;;;-142.06;100.00;64312.41;5055080;28;20189;-81
2024/01/05 04:02:47;;;;;;;1.80;1.20;;;;;;;-142.06;100.00;64312.41;5053717;28;20189;-80
2024/01/05 04:05:14;;;;;;;4.43;1.50;;;;;;;-142.06;100.00;64312.41;5055005;28;20194;-81
2024/01/05 04:07:41;;;;;;;2.97;1.20;;;;;;;-142.06;100.00;64312.41;5055097;28;20221;-82
2024/01/05 04:10:07;;;;;;;2.70;1.83;;;;;;;-142.06;100.00;64312.41;5033211;28;20557;-81
2024/01/05 04:12:34;;;;;;;2.27;1.30;;;;;;;-142.06;100.00;64312.41;5055527;28;20185;-80
2024/01/05 04:15:01;;;;;;;2.17;1.00;;;;;;;-142.06;100.00;64312.41;5056945;28;20280;-78
2024/01/05 04:17:28;;;;;;;1.10;1.00;;;;;;;-142.06;100.00;64312.41;5060063;28;20204;-79
2024/01/05 04:19:56;;;;;;;2.13;1.10;;;;;;;-142.06;100.00;64312.41;5058333;28;20673;-80
2024/01/05 04:22:23;;;;;;;1.93;1.23;;;;;;;-142.06;100.00;64312.41;5057040;28;20211;-81
2024/01/05 04:24:50;;;;;;;3.40;1.30;;;;;;;-142.06;100.00;64312.41;5062218;28;20197;-80
2024/01/05 04:27:18;;;;;;;2.07;1.20;;;;;;;-142.06;100.00;64312.41;5057881;28;20273;-81
2024/01/05 04:29:45;;;;;;;1.63;1.00;;;;;;;-142.06;100.00;64312.41;5058407;28;20200;-79
2024/01/05 04:32:11;;;;;;;2.83;1.30;;;;;;;-142.06;100.00;64312.41;5059660;28;20193;-80
2024/01/05 04:34:40;;;;;;;1.53;1.10;;;;;;;-142.06;100.00;64312.41;5056670;28;20232;-82
2024/01/05 04:37:08;;;;;;;2.30;1.10;;;;;;;-142.06;100.00;64312.41;5055527;28;20196;-81
2024/01/05 04:39:35;;;;;;;2.50;1.50;;;;;;;-142.06;100.00;64312.41;5052031;28;20194;-79
2024/01/05 04:42:03;;;;;;;1.93;1.13;;;;;;;-142.06;100.00;64312.41;5062566;28;20253;-80
2024/01/05 04:44:29;;;;;;;2.80;1.30;;;;;;;-142.06;100.00;64312.41;5055527;28;20210;-80
2024/01/05 04:46:56;;;;;;;1.77;1.00;;;;;;;-142.06;100.00;64312.41;5049988;28;20256;-80
2024/01/05 04:49:26;;;;;;;1.40;1.20;;;;;;;-142.06;100.00;64312.41;5058452;28;20575;-82
2024/01/05 04:51:53;;;;;;;1.97;1.20;;;;;;;-142.06;100.00;64312.41;5052925;28;20185;-81
2024/01/05 04:54:20;;;;;;;1.37;1.07;;;;;;;-142.06;100.00;64312.41;5057066;28;20196;-79
2024/01/05 04:56:47;;;;;;;1.73;1.00;;;;;;;-142.06;100.00;64312.41;5067305;28;20294;-78
2024/01/05 04:59:13;;;;;;;3.57;1.27;;;;;;;-142.06;100.00;64312.41;5053142;28;20193;-80
2024/01/05 05:01:40;;;;;;;3.10;1.20;;;;;;;-142.06;100.00;64312.41;5058223;28;20211;-80
2024/01/05 05:04:07;;;;;;;3.30;1.37;;;;;;;-142.06;100.00;64312.41;5052888;28;20183;-81
2024/01/05 05:06:34;;;;;;;2.20;1.20;;;;;;;-142.06;100.00;64312.41;5062515;28;20201;-80
2024/01/05 05:09:01;;;;;;;2.27;1.10;;;;;;;-142.06;100.00;64312.41;5058314;28;20208;-80
2024/01/05 05:11:30;;;;;;;1.70;1.13;;;;;;;-142.06;100.00;64312.41;5055800;28;20208;-79
2024/01/05 05:13:57;;;;;;;2.87;1.50;;;;;;;-142.06;100.00;64312.41;5040809;28;20232;-78
2024/01/05 05:16:24;;;;;;;3.80;1.60;;;;;;;-142.06;100.00;64312.41;5059435;28;20204;-79
2024/01/05 05:18:50;;;;;;;4.73;2.00;;;;;;;-142.06;100.00;64312.41;5058371;28;20200;-80
2024/01/05 05:21:17;;;;;;;2.67;1.73;;;;;;;-142.06;100.00;64312.41;5057865;28;20197;-79
2024/01/05 05:23:44;;;;;;;2.23;1.63;;;;;;;-142.06;100.00;64312.41;5053932;28;20195;-79
2024/01/05 05:26:11;;;;;;;3.03;1.83;;;;;;;-142.06;100.00;64312.41;5058677;28;20205;-82
2024/01/05 05:28:38;;;;;;;3.30;1.70;;;;;;;-142.06;100.00;64312.41;5053718;28;20221;-78
2024/01/05 05:31:05;;;;;;;2.33;1.73;;;;;;;-142.06;100.00;64312.41;5053270;28;20194;-78
2024/01/05 05:33:32;;;;;;;4.00;1.63;;;;;;;-142.06;100.00;64312.41;5045417;28;20205;-79
2024/01/05 05:35:58;;;;;;;6.27;1.60;;;;;;;-142.06;100.00;64312.41;5054468;28;20688;-79
2024/01/05 05:38:25;;;;;;;3.03;1.63;;;;;;;-142.06;100.00;64312.41;5054407;28;20217;-80
2024/01/05 05:40:52;;;;;;;1.90;1.50;;;;;;;-142.06;100.00;64312.41;5053055;28;20209;-81
2024/01/05 05:43:19;;;;;;;3.67;1.80;;;;;;;-142.06;100.00;64312.41;5051085;28;20214;-80
2024/01/05 05:45:46;;;;;;;3.10;1.80;;;;;;;-142.06;100.00;64312.41;5054508;28;20193;-79
2024/01/05 05:48:13;;;;;;;2.93;1.60;;;;;;;-142.06;100.00;64312.41;5054814;28;20259;-80
2024/01/05 05:50:40;;;;;;;3.20;1.70;;;;;;;-142.06;100.00;64312.41;5053391;28;20189;-78
2024/01/05 05:53:08;;;;;;;2.23;1.60;;;;;;;-142.06;100.00;64312.41;5051612;28;20227;-81
2024/01/05 05:55:35;;;;;;;3.60;1.53;;;;;;;-142.06;100.00;64312.41;5048632;28;20193;-79
2024/01/05 05:58:01;;;;;;;3.10;1.60;;;;;;;-142.06;100.00;64312.41;5054569;28;20181;-78
2024/01/05 06:00:31;;;;;;;3.47;1.60;;;;;;;-142.06;100.00;64312.41;5051882;28;20273;-80
2024/01/05 06:02:58;;;;;;;2.87;1.70;;;;;;;-142.06;100.00;64312.41;5049590;28;20201;-79
2024/01/05 06:05:25;;;;;;;1.63;1.50;;;;;;;-142.06;100.00;64312.41;5051204;28;20268;-81
2024/01/05 06:07:52;;;;;;;2.57;1.67;;;;;;;-142.06;100.00;64312.41;5051844;28;20269;-82
2024/01/05 06:10:19;;;;;;;2.93;1.70;;;;;;;-142.06;100.00;64312.41;5048504;28;20194;-81
2024/01/05 06:12:46;;;;;;;2.47;1.77;;;;;;;-142.06;100.00;64312.41;5037596;28;20189;-80
2024/01/05 06:15:13;;;;;;;3.00;2.20;;;;;;;-142.06;100.00;64312.41;5055612;28;20220;-80
2024/01/05 06:17:40;;;;;;;2.70;1.90;;;;;;;-142.06;100.00;64312.41;5055289;28;20255;-80
2024/01/05 06:20:08;;;;;;;2.27;1.60;;;;;;;-142.06;100.00;64312.41;5059568;28;20228;-81
2024/01/05 06:22:35;;;;;;;1.90;1.70;;;;;;;-142.06;100.00;64312.41;5032073;28;20296;-80
2024/01/05 06:25:01;;;;;;;3.83;1.50;;;;;;;-142.06;100.00;64312.41;5057109;28;20220;-78
2024/01/05 06:27:28;;;;;;;2.47;1.30;;;;;;;-142.06;100.00;64312.41;5049794;28;20205;-79
2024/01/05 06:30:05;;;;;;;3.27;1.50;;;;;;;-142.06;100.00;64312.41;5050945;28;20254;-80
2024/01/05 06:32:32;;;;;;;4.70;1.77;;;;;;;-142.06;100.00;64312.41;5046145;28;20204;-81
2024/01/05 06:34:59;;;;;;;2.43;1.40;;;;;;;-142.06;100.00;64312.41;5050062;28;20240;-80
2024/01/05 06:37:29;;;;;;;3.17;1.50;;;;;;;-142.06;100.00;64312.41;5039888;28;20209;-80
2024/01/05 06:39:56;;;;;;;2.30;1.50;;;;;;;-142.06;100.00;64312.41;5052608;28;20191;-84
2024/01/05 06:42:22;;;;;;;2.90;1.60;;;;;;;-142.06;100.00;64312.41;5052841;28;20256;-80
2024/01/05 06:44:50;;;;;;;2.70;1.40;;;;;;;-142.06;100.00;64312.41;5061884;28;20208;-81
2024/01/05 06:47:17;;;;;;;2.93;1.40;;;;;;;-142.06;100.00;64312.41;5055895;28;20611;-80
2024/01/05 06:49:44;;;;;;;1.83;1.47;;;;;;;-142.06;100.00;64312.41;5048114;28;20204;-77
2024/01/05 06:52:10;;;;;;;2.60;1.43;;;;;;;-142.06;100.00;64312.41;5053086;28;20225;-80
2024/01/05 06:54:37;;;;;;;2.57;1.30;;;;;;;-142.06;100.00;64312.41;5035605;28;20247;-79
2024/01/05 06:57:07;;;;;;;4.87;1.77;;;;;;;-142.06;100.00;64312.41;5043484;28;20190;-79
2024/01/05 06:59:36;;;;;;;2.30;1.60;;;;;;;-142.06;100.00;64312.41;5050447;28;20217;-80
2024/01/05 07:02:03;;;;;;;1.77;1.40;;;;;;;-142.06;100.00;64312.41;5050173;28;20210;-78
2024/01/05 07:04:30;;;;;;;3.93;1.60;;;;;;;-142.06;100.00;64312.41;5035715;28;20220;-80
2024/01/05 07:06:57;;;;;;;3.37;1.70;;;;;;;-142.06;100.00;64312.41;5050466;28;20202;-82
2024/01/05 07:09:24;;;;;;;2.17;1.30;;;;;;;-142.06;100.00;64312.41;5054504;28;20221;-79
2024/01/05 07:11:52;;;;;;;3.67;1.70;;;;;;;-142.06;100.00;64312.41;5051945;28;20190;-79
2024/01/05 07:14:19;;;;;;;3.40;1.57;;;;;;;-142.06;100.00;64312.41;5052627;28;20194;-83
2024/01/05 07:16:47;;;;;;;2.97;1.63;;;;;;;-142.06;100.00;64312.41;5052842;28;20194;-82
2024/01/05 07:19:14;;;;;;;1.90;1.40;;;;;;;-142.06;100.00;64312.41;5054214;28;20196;-79
2024/01/05 07:21:41;;;;;;;4.53;1.47;;;;;;;-142.06;100.00;64312.41;5052799;28;20259;-79
2024/01/05 07:24:08;;;;;;;2.50;1.50;;;;;;;-142.06;100.00;64312.41;5052835;28;20268;-82
2024/01/05 07:26:35;;;;;;;2.67;1.50;;;;;;;-142.06;100.00;64312.41;5054298;28;20221;-79
2024/01/05 07:29:02;;;;;;;3.13;1.40;;;;;;;-142.06;100.00;64312.41;5052799;28;20209;-79
2024/01/05 07:31:29;;;;;;;1.50;1.20;;;;;;;-142.06;100.00;64312.41;5052696;28;20239;-80
2024/01/05 07:33:56;;;;;;;2.83;1.30;;;;;;;-142.06;100.00;64312.41;5035192;28;20584;-81
2024/01/05 07:36:23;;;;;;;2.10;1.43;;;;;;;-142.06;100.00;64312.41;5047413;28;20208;-79
2024/01/05 07:38:50;;;;;;;8.27;6.20;;;;;;;-142.06;100.00;64312.41;5047915;28;20209;-79
2024/01/05 07:41:18;;;;;;;5.07;3.80;;;;;;;-142.06;100.00;64312.41;5036731;28;20247;-79
2024/01/05 07:43:45;;;;;;;8.17;5.80;;;;;;;-142.06;100.00;64312.41;5056028;28;20204;-81
2024/01/05 07:46:12;;;;;;;5.53;4.00;;;;;;;-142.06;100.00;64312.41;5034303;28;20237;-80
2024/01/05 07:48:40;;;;;;;5.43;3.67;;;;;;;-142.06;100.00;64312.41;5052728;28;20209;-79
2024/01/05 07:51:08;;;;;;;5.20;3.30;;;;;;;-142.06;100.00;64312.41;5042375;28;20194;-80
2024/01/05 07:53:35;;;;;;;3.23;2.80;;;;;;;-142.06;100.00;64312.41;5025120;28;20234;-80
2024/01/05 07:56:03;;;;;;;4.13;2.83;;;;;;;-142.06;100.00;64312.41;5048498;28;20287;-80
2024/01/05 07:58:29;;;;;;;3.93;2.57;;;;;;;-142.06;100.00;64312.41;5058779;28;20189;-79
2024/01/05 08:00:57;;;;;;;4.57;2.40;;;;;;;-142.06;100.00;64312.41;5044642;28;20198;-83
2024/01/05 08:03:24;;;;;;;2.20;2.00;;;;;;;-142.06;100.00;64312.41;5052090;28;20201;-79
2024/01/05 08:05:51;;;;;;;3.00;1.80;;;;;;;-142.06;100.00;64312.41;5051900;28;20617;-79
2024/01/05 08:08:18;;;;;;;2.70;1.67;;;;;;;-142.06;100.00;64312.41;5051082;28;20305;-80
2024/01/05 08:10:45;;;;;;;4.00;3.13;;;;;;;-142.06;100.00;64312.41;5048395;28;20240;-80
2024/01/05 08:13:12;;;;;;;6.80;3.60;;;;;;;-142.06;100.00;64312.41;5050726;28;20186;-81
2024/01/05 08:15:39;;;;;;;4.13;3.03;;;;;;;-142.06;100.00;64312.41;5047536;28;20220;-80
2024/01/05 08:18:06;;;;;;;5.73;3.50;;;;;;;-142.06;100.00;64312.41;5044363;28;20191;-79
2024/01/05 08:20:33;;;;;;;4.90;3.20;;;;;;;-142.06;100.00;64312.41;5052936;28;20197;-78
2024/01/05 08:23:01;;;;;;;7.93;4.00;;;;;;;-142.06;100.00;64312.41;5025662;28;20202;-79
2024/01/05 08:25:56;;;;;;;3.13;2.00;;;;;;;-142.06;100.00;64312.41;5063000;28;20201;-79
2024/01/05 08:28:24;;;;;;;3.37;2.20;;;;;;;-142.06;100.00;64312.41;5050286;28;20210;-81
2024/01/05 08:30:51;;;;;;;2.83;1.70;;;;;;;-142.06;100.00;64312.41;5067718;28;20194;-79
2024/01/05 08:33:21;;;;;;;4.07;1.90;;;;;;;-142.06;100.00;64312.41;5055061;28;20197;-82
2024/01/05 08:35:48;;;;;;;3.27;1.80;;;;;;;-142.06;100.00;64312.41;5051171;28;20288;-79
2024/01/05 08:38:14;;;;;;;4.20;2.30;;;;;;;-142.06;100.00;64312.41;5055879;28;20201;-79
2024/01/05 08:40:41;;;;;;;4.80;2.43;;;;;;;-142.06;100.00;64312.41;5048462;28;20193;-79
2024/01/05 08:43:10;;;;;;;7.67;5.63;;;;;;;-142.06;100.00;64312.41;5050919;28;20189;-81
2024/01/05 08:45:37;;;;;;;6.07;4.80;;;;;;;-142.06;100.00;64312.41;5050761;28;20276;-79
2024/01/05 08:48:05;;;;;;;3.37;3.03;;;;;;;-142.06;100.00;64312.41;5051561;28;20236;-79
2024/01/05 08:50:34;;;;;;;5.37;3.50;;;;;;;-142.06;100.00;64312.41;5049427;28;20217;-79
2024/01/05 08:53:01;;;;;;;4.10;2.43;;;;;;;-142.06;100.00;64312.41;5051348;28;20206;-80
2024/01/05 08:55:28;;;;;;;3.17;2.50;;;;;;;-142.06;100.00;64312.41;5048105;28;20205;-81
2024/01/05 08:57:56;;;;;;;2.63;1.90;;;;;;;-142.06;100.00;64312.41;5035496;28;20252;-81
2024/01/05 09:00:23;;;;;;;4.13;1.73;;;;;;;-142.06;100.00;64312.41;5041228;28;20580;-79
2024/01/05 09:02:50;;;;;;;2.60;1.77;;;;;;;-142.06;100.00;64312.41;5057208;28;20190;-78
2024/01/05 09:05:17;;;;;;;5.03;1.80;;;;;;;-142.06;100.00;64312.41;5041029;28;20714;-80
2024/01/05 09:07:44;;;;;;;2.97;1.87;;;;;;;-142.06;100.00;64312.41;5037005;28;20200;-79
2024/01/05 09:10:11;;;;;;;3.67;2.00;;;;;;;-142.06;100.00;64312.41;5055294;28;20234;-81
2024/01/05 09:12:38;;;;;;;4.67;2.40;;;;;;;-142.06;100.00;64312.41;5054918;28;20200;-81
2024/01/05 09:15:09;;;;;;;2.23;1.70;;;;;;;-142.06;100.00;64312.41;5049740;28;20190;-79
2024/01/05 09:17:36;;;;;;;3.23;2.30;;;;;;;-142.06;100.00;64312.41;5052794;28;20247;-80
2024/01/05 09:20:03;;;;;;;7.13;5.90;;;;;;;-142.06;100.00;64312.41;5054157;28;20186;-79
2024/01/05 09:22:30;;;;;;;6.67;4.20;;;;;;;-142.06;100.00;64312.41;5055313;28;20284;-79
2024/01/05 09:24:57;;;;;;;5.93;3.80;;;;;;;-142.06;100.00;64312.41;5054918;28;20268;-81
2024/01/05 09:27:24;;;;;;;2.80;2.40;;;;;;;-142.06;100.00;64312.41;5053510;28;20204;-81
2024/01/05 09:29:51;;;;;;;5.10;2.10;;;;;;;-142.06;100.00;64312.41;5055245;28;20244;-79
2024/01/05 09:32:18;;;;;;;3.10;2.10;;;;;;;-142.06;100.00;64312.41;5052778;28;20205;-79
2024/01/05 09:34:44;;;;;;;3.37;2.00;;;;;;;-142.06;100.00;64312.41;5036227;28;20221;-78
2024/01/05 09:37:11;;;;;;;2.50;2.20;;;;;;;-142.06;100.00;64312.41;5051328;28;20247;-79
2024/01/05 09:39:39;;;;;;;2.90;2.33;;;;;;;-142.06;100.00;64312.41;5049726;28;20221;-80
2024/01/05 09:42:06;;;;;;;2.60;2.10;;;;;;;-142.06;100.00;64312.41;5051655;28;20292;-78
2024/01/05 09:44:34;;;;;;;3.23;2.83;;;;;;;-142.06;100.00;64312.41;5052564;28;20273;-80
2024/01/05 09:47:01;;;;;;;3.57;2.80;;;;;;;-142.06;100.00;64312.41;5027022;28;20225;-80
2024/01/05 09:49:32;;;;;;;4.27;3.27;;;;;;;-142.06;100.00;64312.41;5052337;28;20217;-80
2024/01/05 09:51:59;;;;;;;4.77;4.23;;;;;;;-142.06;100.00;64312.41;5036427;28;20205;-79
2024/01/05 09:54:26;;;;;;;6.13;5.17;;;;;;;-142.06;100.00;64312.41;5051060;28;20243;-78
2024/01/05 09:56:53;;;;;;;6.13;4.80;;;;;;;-142.06;100.00;64312.41;5050467;28;20197;-79
2024/01/05 09:59:20;;;;;;;5.90;5.30;;;;;;;-142.06;100.00;64312.41;5051127;28;20235;-80
2024/01/05 10:01:50;;;;;;;6.53;5.73;;;;;;;-142.06;100.00;64312.41;5050919;28;20205;-80
2024/01/05 10:04:19;;;;;;;7.03;5.40;;;;;;;-142.06;100.00;64312.41;5052606;28;20201;-81
2024/01/05 10:06:46;;;;;;;7.03;5.47;;;;;;;-142.06;100.00;64312.41;5050935;28;20248;-78
2024/01/05 10:09:13;;;;;;;6.03;5.20;;;;;;;-142.06;100.00;64312.41;5056761;28;20240;-79
2024/01/05 10:11:42;;;;;;;6.73;5.30;;;;;;;-142.06;100.00;64312.41;5054050;28;20198;-79
2024/01/05 10:14:13;;;;;;;6.23;5.57;;;;;;;-142.06;100.00;64312.41;5052812;28;20216;-79
2024/01/05 10:16:40;;;;;;;8.50;5.90;;;;;;;-142.06;100.00;64312.41;5068414;28;20259;-77
2024/01/05 10:19:11;;;;;;;8.13;6.10;;;;;;;-142.06;100.00;64312.41;5035714;28;20197;-77
2024/01/05 10:21:45;;;;;;;9.33;5.93;;;;;;;-142.06;100.00;64312.41;5052866;28;20677;-80
2024/01/05 10:24:29;;;;;;;7.17;6.17;;;;;;;-142.06;100.00;64312.41;5046233;28;20247;-79
2024/01/05 10:27:06;;;;;;;7.97;6.00;;;;;;;-142.06;100.00;64312.41;5051722;28;20198;-79
2024/01/05 10:29:36;;;;;;;8.70;6.83;;;;;;;-142.06;100.00;64312.41;5059066;28;20221;-79
2024/01/05 10:32:10;;;;;;;7.80;7.00;;;;;;;-142.06;100.00;64312.41;5034019;28;20209;-81
2024/01/05 10:34:38;;;;;;;8.13;6.50;;;;;;;-142.06;100.00;64312.41;5052259;28;20244;-81
2024/01/05 10:37:06;;;;;;;7.70;6.40;;;;;;;-142.06;100.00;64312.41;5035072;28;20189;-80
2024/01/05 10:39:32;;;;;;;8.50;6.47;;;;;;;-142.06;100.00;64312.41;5056057;28;20192;-79
2024/01/05 10:42:28;;;;;;;7.67;6.17;;;;;;;-142.06;100.00;64312.41;5051542;28;20197;-81
2024/01/05 10:44:56;;;;;;;9.73;6.90;;;;;;;-142.06;100.00;64312.41;5050912;28;20276;-83
2024/01/05 10:47:31;;;;;;;9.17;6.63;;;;;;;-142.06;100.00;64312.41;5051386;28;20308;-78
2024/01/05 10:49:58;;;;;;;8.90;6.67;;;;;;;-142.06;100.00;64312.41;5039752;28;20287;-79
2024/01/05 10:52:32;;;;;;;11.37;6.93;;;;;;;-142.06;100.00;64312.41;5049332;28;20677;-81
2024/01/05 10:55:03;;;;;;;9.37;6.63;;;;;;;-142.06;100.00;64312.41;5053014;28;20182;-78
2024/01/05 10:57:35;;;;;;;9.60;6.80;;;;;;;-142.06;100.00;64312.41;5050543;28;20208;-79
2024/01/05 11:00:05;;;;;;;9.40;6.40;;;;;;;-142.06;100.00;64312.41;5050311;28;20224;-79
2024/01/05 11:02:51;;;;;;;9.07;6.53;;;;;;;-142.06;100.00;64312.41;5018703;28;20271;-79
2024/01/05 11:05:18;;;;;;;9.20;6.70;;;;;;;-142.06;100.00;64312.41;5051553;28;20217;-78
2024/01/05 11:07:48;;;;;;;9.20;7.10;;;;;;;-142.06;100.00;64312.41;5050786;28;20186;-78
2024/01/05 11:10:24;;;;;;;7.77;6.97;;;;;;;-142.06;100.00;64312.41;5021785;28;20221;-80
2024/01/05 11:13:12;;;;;;;9.30;7.37;;;;;;;-142.06;100.00;64312.41;5050938;28;20201;-78